sensor_id;sensor_type;location;lat;lon;timestamp;P1;durP1;ratioP1;P2;durP2;ratioP2
57858;SDS011;49153;45.568;11.894;2022-07-23T00:00:05;16.52;;;14.93;;
57858;SDS011;49153;45.568;11.894;2022-07-23T00:02:31;20.13;;;15.15;;
57858;SDS011;49153;45.568;11.894;2022-07-23T00:04:57;17.75;;;15.90;;
57858;SDS011;49153;45.568;11.894;2022-07-23T00:07:22;18.15;;;15.55;;
57858;SDS011;49153;45.568;11.894;2022-07-23T00:09:48;18.15;;;15.55;;
57858;SDS011;49153;45.568;11.894;2022-07-23T00:12:13;18.20;;;15.82;;
57858;SDS011;49153;45.568;11.894;2022-07-23T00:14:39;17.80;;;15.98;;
57858;SDS011;49153;45.568;11.894;2022-07-23T00:17:04;21.77;;;16.02;;
57858;SDS011;49153;45.568;11.894;2022-07-23T00:19:30;19.92;;;15.82;;
57858;SDS011;49153;45.568;11.894;2022-07-23T00:21:55;17.25;;;15.25;;
57858;SDS011;49153;45.568;11.894;2022-07-23T00:24:20;20.35;;;15.95;;
57858;SDS011;49153;45.568;11.894;2022-07-23T00:26:46;19.58;;;16.23;;
57858;SDS011;49153;45.568;11.894;2022-07-23T00:29:12;22.63;;;17.08;;
57858;SDS011;49153;45.568;11.894;2022-07-23T00:31:37;18.13;;;16.23;;
57858;SDS011;49153;45.568;11.894;2022-07-23T00:34:06;18.23;;;15.60;;
57858;SDS011;49153;45.568;11.894;2022-07-23T00:36:31;17.25;;;15.43;;
57858;SDS011;49153;45.568;11.894;2022-07-23T00:38:57;20.75;;;17.00;;
57858;SDS011;49153;45.568;11.894;2022-07-23T00:41:22;18.02;;;16.17;;
57858;SDS011;49153;45.568;11.894;2022-07-23T00:43:48;21.02;;;16.25;;
57858;SDS011;49153;45.568;11.894;2022-07-23T00:46:18;18.92;;;16.92;;
57858;SDS011;49153;45.568;11.894;2022-07-23T00:48:47;19.73;;;16.13;;
57858;SDS011;49153;45.568;11.894;2022-07-23T00:51:16;18.35;;;16.45;;
57858;SDS011;49153;45.568;11.894;2022-07-23T00:53:43;21.05;;;16.80;;
57858;SDS011;49153;45.568;11.894;2022-07-23T00:56:09;18.60;;;16.65;;
57858;SDS011;49153;45.568;11.894;2022-07-23T00:58:35;18.42;;;16.45;;
57858;SDS011;49153;45.568;11.894;2022-07-23T01:01:06;18.20;;;15.88;;
57858;SDS011;49153;45.568;11.894;2022-07-23T01:03:33;17.15;;;15.40;;
57858;SDS011;49153;45.568;11.894;2022-07-23T01:05:58;19.23;;;15.65;;
57858;SDS011;49153;45.568;11.894;2022-07-23T01:08:24;19.35;;;16.85;;
57858;SDS011;49153;45.568;11.894;2022-07-23T01:10:49;17.90;;;16.05;;
57858;SDS011;49153;45.568;11.894;2022-07-23T01:13:16;19.85;;;17.27;;
57858;SDS011;49153;45.568;11.894;2022-07-23T01:15:42;20.05;;;17.90;;
57858;SDS011;49153;45.568;11.894;2022-07-23T01:18:07;20.85;;;18.58;;
57858;SDS011;49153;45.568;11.894;2022-07-23T01:20:33;21.60;;;17.77;;
57858;SDS011;49153;45.568;11.894;2022-07-23T01:22:59;21.85;;;19.58;;
57858;SDS011;49153;45.568;11.894;2022-07-23T01:25:25;22.10;;;18.77;;
57858;SDS011;49153;45.568;11.894;2022-07-23T01:27:52;25.15;;;19.05;;
57858;SDS011;49153;45.568;11.894;2022-07-23T01:30:18;22.50;;;18.10;;
57858;SDS011;49153;45.568;11.894;2022-07-23T01:32:44;21.58;;;19.10;;
57858;SDS011;49153;45.568;11.894;2022-07-23T01:35:09;21.10;;;18.77;;
57858;SDS011;49153;45.568;11.894;2022-07-23T01:37:36;23.90;;;19.35;;
57858;SDS011;49153;45.568;11.894;2022-07-23T01:40:02;21.52;;;18.83;;
57858;SDS011;49153;45.568;11.894;2022-07-23T01:42:28;22.67;;;19.25;;
57858;SDS011;49153;45.568;11.894;2022-07-23T01:44:53;20.80;;;18.60;;
57858;SDS011;49153;45.568;11.894;2022-07-23T01:47:18;21.75;;;18.92;;
57858;SDS011;49153;45.568;11.894;2022-07-23T01:49:44;21.88;;;19.63;;
57858;SDS011;49153;45.568;11.894;2022-07-23T01:52:09;21.05;;;18.75;;
57858;SDS011;49153;45.568;11.894;2022-07-23T01:54:36;21.08;;;18.77;;
57858;SDS011;49153;45.568;11.894;2022-07-23T01:57:03;21.80;;;19.58;;
57858;SDS011;49153;45.568;11.894;2022-07-23T01:59:29;21.40;;;19.13;;
57858;SDS011;49153;45.568;11.894;2022-07-23T02:01:55;22.30;;;19.88;;
57858;SDS011;49153;45.568;11.894;2022-07-23T02:04:21;23.90;;;19.65;;
57858;SDS011;49153;45.568;11.894;2022-07-23T02:06:48;21.90;;;18.75;;
57858;SDS011;49153;45.568;11.894;2022-07-23T02:09:14;24.30;;;20.27;;
57858;SDS011;49153;45.568;11.894;2022-07-23T02:11:40;24.75;;;19.85;;
57858;SDS011;49153;45.568;11.894;2022-07-23T02:14:06;23.35;;;19.80;;
57858;SDS011;49153;45.568;11.894;2022-07-23T02:16:31;27.17;;;21.50;;
57858;SDS011;49153;45.568;11.894;2022-07-23T02:18:57;23.50;;;21.00;;
57858;SDS011;49153;45.568;11.894;2022-07-23T02:21:22;24.55;;;21.42;;
57858;SDS011;49153;45.568;11.894;2022-07-23T02:23:48;23.90;;;20.83;;
57858;SDS011;49153;45.568;11.894;2022-07-23T02:26:14;25.02;;;20.63;;
57858;SDS011;49153;45.568;11.894;2022-07-23T02:28:40;23.20;;;20.08;;
57858;SDS011;49153;45.568;11.894;2022-07-23T02:31:05;22.15;;;19.02;;
57858;SDS011;49153;45.568;11.894;2022-07-23T02:33:32;21.20;;;18.85;;
57858;SDS011;49153;45.568;11.894;2022-07-23T02:35:58;21.67;;;18.40;;
57858;SDS011;49153;45.568;11.894;2022-07-23T02:38:23;22.90;;;18.13;;
57858;SDS011;49153;45.568;11.894;2022-07-23T02:40:49;22.08;;;18.52;;
57858;SDS011;49153;45.568;11.894;2022-07-23T02:43:14;19.67;;;17.70;;
57858;SDS011;49153;45.568;11.894;2022-07-23T02:45:40;19.58;;;17.02;;
57858;SDS011;49153;45.568;11.894;2022-07-23T02:48:05;21.75;;;18.60;;
57858;SDS011;49153;45.568;11.894;2022-07-23T02:50:31;20.88;;;17.40;;
57858;SDS011;49153;45.568;11.894;2022-07-23T02:52:56;19.27;;;17.23;;
57858;SDS011;49153;45.568;11.894;2022-07-23T02:55:22;19.42;;;16.98;;
57858;SDS011;49153;45.568;11.894;2022-07-23T02:57:47;18.77;;;16.77;;
57858;SDS011;49153;45.568;11.894;2022-07-23T03:00:13;19.13;;;17.02;;
57858;SDS011;49153;45.568;11.894;2022-07-23T03:02:38;20.23;;;16.13;;
57858;SDS011;49153;45.568;11.894;2022-07-23T03:05:04;18.80;;;16.45;;
57858;SDS011;49153;45.568;11.894;2022-07-23T03:07:30;20.27;;;17.63;;
57858;SDS011;49153;45.568;11.894;2022-07-23T03:09:55;19.45;;;16.85;;
57858;SDS011;49153;45.568;11.894;2022-07-23T03:12:21;23.00;;;17.95;;
57858;SDS011;49153;45.568;11.894;2022-07-23T03:14:46;23.00;;;18.88;;
57858;SDS011;49153;45.568;11.894;2022-07-23T03:17:12;20.88;;;18.63;;
57858;SDS011;49153;45.568;11.894;2022-07-23T03:19:37;19.77;;;17.63;;
57858;SDS011;49153;45.568;11.894;2022-07-23T03:22:03;22.23;;;18.08;;
57858;SDS011;49153;45.568;11.894;2022-07-23T03:24:29;19.13;;;16.83;;
57858;SDS011;49153;45.568;11.894;2022-07-23T03:27:13;22.90;;;17.73;;
57858;SDS011;49153;45.568;11.894;2022-07-23T03:29:39;22.95;;;18.48;;
57858;SDS011;49153;45.568;11.894;2022-07-23T03:32:04;21.98;;;17.73;;
57858;SDS011;49153;45.568;11.894;2022-07-23T03:34:30;23.30;;;17.65;;
57858;SDS011;49153;45.568;11.894;2022-07-23T03:36:55;18.65;;;16.67;;
57858;SDS011;49153;45.568;11.894;2022-07-23T03:39:21;19.10;;;16.92;;
57858;SDS011;49153;45.568;11.894;2022-07-23T03:41:46;20.15;;;17.83;;
57858;SDS011;49153;45.568;11.894;2022-07-23T03:44:12;19.25;;;17.13;;
57858;SDS011;49153;45.568;11.894;2022-07-23T03:46:37;20.85;;;17.95;;
57858;SDS011;49153;45.568;11.894;2022-07-23T03:49:03;21.20;;;18.15;;
57858;SDS011;49153;45.568;11.894;2022-07-23T03:51:28;21.05;;;18.85;;
57858;SDS011;49153;45.568;11.894;2022-07-23T03:53:54;23.67;;;19.00;;
57858;SDS011;49153;45.568;11.894;2022-07-23T03:56:20;23.88;;;18.85;;
57858;SDS011;49153;45.568;11.894;2022-07-23T03:58:46;24.02;;;18.77;;
57858;SDS011;49153;45.568;11.894;2022-07-23T04:01:12;24.88;;;19.70;;
57858;SDS011;49153;45.568;11.894;2022-07-23T04:03:37;20.23;;;18.08;;
57858;SDS011;49153;45.568;11.894;2022-07-23T04:06:03;19.90;;;17.75;;
57858;SDS011;49153;45.568;11.894;2022-07-23T04:08:28;19.55;;;17.50;;
57858;SDS011;49153;45.568;11.894;2022-07-23T04:10:55;20.05;;;18.00;;
57858;SDS011;49153;45.568;11.894;2022-07-23T04:13:21;20.70;;;17.85;;
57858;SDS011;49153;45.568;11.894;2022-07-23T04:15:46;22.33;;;18.00;;
57858;SDS011;49153;45.568;11.894;2022-07-23T04:18:12;25.02;;;18.38;;
57858;SDS011;49153;45.568;11.894;2022-07-23T04:20:37;22.00;;;18.27;;
57858;SDS011;49153;45.568;11.894;2022-07-23T04:23:03;22.50;;;18.63;;
57858;SDS011;49153;45.568;11.894;2022-07-23T04:25:28;22.63;;;17.98;;
57858;SDS011;49153;45.568;11.894;2022-07-23T04:27:54;24.00;;;17.50;;
57858;SDS011;49153;45.568;11.894;2022-07-23T04:30:19;19.35;;;16.83;;
57858;SDS011;49153;45.568;11.894;2022-07-23T04:32:45;20.75;;;17.77;;
57858;SDS011;49153;45.568;11.894;2022-07-23T04:35:10;20.70;;;18.17;;
57858;SDS011;49153;45.568;11.894;2022-07-23T04:37:36;22.98;;;18.00;;
57858;SDS011;49153;45.568;11.894;2022-07-23T04:40:01;19.77;;;17.60;;
57858;SDS011;49153;45.568;11.894;2022-07-23T04:42:29;24.13;;;18.10;;
57858;SDS011;49153;45.568;11.894;2022-07-23T04:44:54;24.33;;;19.40;;
57858;SDS011;49153;45.568;11.894;2022-07-23T04:47:19;23.23;;;17.77;;
57858;SDS011;49153;45.568;11.894;2022-07-23T04:49:45;22.17;;;18.95;;
57858;SDS011;49153;45.568;11.894;2022-07-23T04:52:10;21.10;;;18.42;;
57858;SDS011;49153;45.568;11.894;2022-07-23T04:54:36;21.50;;;18.27;;
57858;SDS011;49153;45.568;11.894;2022-07-23T04:57:01;23.05;;;18.48;;
57858;SDS011;49153;45.568;11.894;2022-07-23T04:59:27;21.80;;;18.85;;
57858;SDS011;49153;45.568;11.894;2022-07-23T05:01:52;22.50;;;18.55;;
57858;SDS011;49153;45.568;11.894;2022-07-23T05:04:18;22.67;;;18.45;;
57858;SDS011;49153;45.568;11.894;2022-07-23T05:06:43;21.35;;;18.42;;
57858;SDS011;49153;45.568;11.894;2022-07-23T05:09:09;20.02;;;17.63;;
57858;SDS011;49153;45.568;11.894;2022-07-23T05:11:34;26.90;;;20.38;;
57858;SDS011;49153;45.568;11.894;2022-07-23T05:14:00;22.90;;;19.20;;
57858;SDS011;49153;45.568;11.894;2022-07-23T05:16:25;23.92;;;19.52;;
57858;SDS011;49153;45.568;11.894;2022-07-23T05:18:50;24.80;;;20.63;;
57858;SDS011;49153;45.568;11.894;2022-07-23T05:21:16;24.95;;;20.58;;
57858;SDS011;49153;45.568;11.894;2022-07-23T05:23:42;26.35;;;20.40;;
57858;SDS011;49153;45.568;11.894;2022-07-23T05:26:07;22.58;;;20.17;;
57858;SDS011;49153;45.568;11.894;2022-07-23T05:28:33;22.58;;;20.13;;
57858;SDS011;49153;45.568;11.894;2022-07-23T05:30:58;21.83;;;19.52;;
57858;SDS011;49153;45.568;11.894;2022-07-23T05:33:24;25.00;;;20.75;;
57858;SDS011;49153;45.568;11.894;2022-07-23T05:35:49;22.55;;;20.10;;
57858;SDS011;49153;45.568;11.894;2022-07-23T05:38:15;23.67;;;21.17;;
57858;SDS011;49153;45.568;11.894;2022-07-23T05:40:40;25.95;;;22.17;;
57858;SDS011;49153;45.568;11.894;2022-07-23T05:43:06;25.15;;;22.45;;
57858;SDS011;49153;45.568;11.894;2022-07-23T05:45:31;25.48;;;21.83;;
57858;SDS011;49153;45.568;11.894;2022-07-23T05:47:56;28.40;;;22.63;;
57858;SDS011;49153;45.568;11.894;2022-07-23T05:50:22;22.98;;;20.63;;
57858;SDS011;49153;45.568;11.894;2022-07-23T05:52:47;29.17;;;23.33;;
57858;SDS011;49153;45.568;11.894;2022-07-23T05:55:13;24.65;;;22.05;;
57858;SDS011;49153;45.568;11.894;2022-07-23T05:57:39;26.02;;;23.20;;
57858;SDS011;49153;45.568;11.894;2022-07-23T06:00:06;26.63;;;22.40;;
57858;SDS011;49153;45.568;11.894;2022-07-23T06:02:33;25.38;;;21.70;;
57858;SDS011;49153;45.568;11.894;2022-07-23T06:04:58;25.58;;;22.38;;
57858;SDS011;49153;45.568;11.894;2022-07-23T06:07:24;24.88;;;22.23;;
57858;SDS011;49153;45.568;11.894;2022-07-23T06:09:49;25.08;;;22.23;;
57858;SDS011;49153;45.568;11.894;2022-07-23T06:12:15;23.77;;;21.30;;
57858;SDS011;49153;45.568;11.894;2022-07-23T06:14:41;24.88;;;22.33;;
57858;SDS011;49153;45.568;11.894;2022-07-23T06:17:07;24.58;;;22.10;;
57858;SDS011;49153;45.568;11.894;2022-07-23T06:19:33;24.23;;;21.75;;
57858;SDS011;49153;45.568;11.894;2022-07-23T06:21:58;23.88;;;20.83;;
57858;SDS011;49153;45.568;11.894;2022-07-23T06:24:23;26.27;;;22.15;;
57858;SDS011;49153;45.568;11.894;2022-07-23T06:26:49;26.63;;;22.92;;
57858;SDS011;49153;45.568;11.894;2022-07-23T06:29:14;25.35;;;21.73;;
57858;SDS011;49153;45.568;11.894;2022-07-23T06:31:40;27.83;;;23.48;;
57858;SDS011;49153;45.568;11.894;2022-07-23T06:34:05;23.75;;;21.25;;
57858;SDS011;49153;45.568;11.894;2022-07-23T06:36:31;23.90;;;21.10;;
57858;SDS011;49153;45.568;11.894;2022-07-23T06:38:56;26.65;;;22.13;;
57858;SDS011;49153;45.568;11.894;2022-07-23T06:42:04;25.17;;;22.13;;
57858;SDS011;49153;45.568;11.894;2022-07-23T06:44:16;79.78;;;22.92;;
57858;SDS011;49153;45.568;11.894;2022-07-23T06:46:42;30.38;;;20.98;;
57858;SDS011;49153;45.568;11.894;2022-07-23T06:49:07;23.45;;;20.98;;
57858;SDS011;49153;45.568;11.894;2022-07-23T06:51:33;24.63;;;21.77;;
57858;SDS011;49153;45.568;11.894;2022-07-23T06:53:59;24.63;;;21.85;;
57858;SDS011;49153;45.568;11.894;2022-07-23T06:56:24;23.55;;;21.05;;
57858;SDS011;49153;45.568;11.894;2022-07-23T06:58:50;23.08;;;20.60;;
57858;SDS011;49153;45.568;11.894;2022-07-23T07:01:15;22.65;;;20.30;;
57858;SDS011;49153;45.568;11.894;2022-07-23T07:03:41;24.13;;;20.25;;
57858;SDS011;49153;45.568;11.894;2022-07-23T07:06:07;22.17;;;19.58;;
57858;SDS011;49153;45.568;11.894;2022-07-23T07:08:32;22.30;;;19.85;;
57858;SDS011;49153;45.568;11.894;2022-07-23T07:10:58;22.13;;;19.83;;
57858;SDS011;49153;45.568;11.894;2022-07-23T07:13:23;21.83;;;19.05;;
57858;SDS011;49153;45.568;11.894;2022-07-23T07:15:49;20.95;;;18.48;;
57858;SDS011;49153;45.568;11.894;2022-07-23T07:18:14;21.98;;;19.88;;
57858;SDS011;49153;45.568;11.894;2022-07-23T07:20:40;23.02;;;20.83;;
57858;SDS011;49153;45.568;11.894;2022-07-23T07:23:05;20.70;;;18.50;;
57858;SDS011;49153;45.568;11.894;2022-07-23T07:25:31;22.63;;;20.17;;
57858;SDS011;49153;45.568;11.894;2022-07-23T07:27:56;21.73;;;19.42;;
57858;SDS011;49153;45.568;11.894;2022-07-23T07:30:22;22.65;;;20.45;;
57858;SDS011;49153;45.568;11.894;2022-07-23T07:32:47;20.90;;;18.85;;
57858;SDS011;49153;45.568;11.894;2022-07-23T07:35:13;21.95;;;18.95;;
57858;SDS011;49153;45.568;11.894;2022-07-23T07:37:38;20.75;;;18.65;;
57858;SDS011;49153;45.568;11.894;2022-07-23T07:40:04;20.35;;;18.17;;
57858;SDS011;49153;45.568;11.894;2022-07-23T07:42:30;18.98;;;16.98;;
57858;SDS011;49153;45.568;11.894;2022-07-23T07:44:57;20.65;;;17.42;;
57858;SDS011;49153;45.568;11.894;2022-07-23T07:47:22;17.77;;;15.93;;
57858;SDS011;49153;45.568;11.894;2022-07-23T07:49:48;17.05;;;15.38;;
57858;SDS011;49153;45.568;11.894;2022-07-23T07:52:14;20.45;;;15.65;;
57858;SDS011;49153;45.568;11.894;2022-07-23T07:54:39;18.65;;;16.73;;
57858;SDS011;49153;45.568;11.894;2022-07-23T07:57:05;19.75;;;16.40;;
57858;SDS011;49153;45.568;11.894;2022-07-23T07:59:30;18.23;;;16.13;;
57858;SDS011;49153;45.568;11.894;2022-07-23T08:01:56;17.30;;;15.57;;
57858;SDS011;49153;45.568;11.894;2022-07-23T08:04:21;19.27;;;16.02;;
57858;SDS011;49153;45.568;11.894;2022-07-23T08:06:46;17.85;;;16.05;;
57858;SDS011;49153;45.568;11.894;2022-07-23T08:09:12;16.55;;;14.88;;
57858;SDS011;49153;45.568;11.894;2022-07-23T08:11:37;15.77;;;14.27;;
57858;SDS011;49153;45.568;11.894;2022-07-23T08:14:09;17.17;;;15.43;;
57858;SDS011;49153;45.568;11.894;2022-07-23T08:16:36;17.08;;;15.38;;
57858;SDS011;49153;45.568;11.894;2022-07-23T08:19:02;16.33;;;14.73;;
57858;SDS011;49153;45.568;11.894;2022-07-23T08:21:27;17.00;;;15.25;;
57858;SDS011;49153;45.568;11.894;2022-07-23T08:23:53;16.67;;;15.07;;
57858;SDS011;49153;45.568;11.894;2022-07-23T08:26:18;17.52;;;15.15;;
57858;SDS011;49153;45.568;11.894;2022-07-23T08:28:44;17.02;;;14.93;;
57858;SDS011;49153;45.568;11.894;2022-07-23T08:31:09;15.35;;;13.82;;
57858;SDS011;49153;45.568;11.894;2022-07-23T08:36:05;15.98;;;14.52;;
57858;SDS011;49153;45.568;11.894;2022-07-23T08:38:32;17.25;;;15.55;;
57858;SDS011;49153;45.568;11.894;2022-07-23T08:40:58;16.75;;;15.07;;
57858;SDS011;49153;45.568;11.894;2022-07-23T08:43:25;16.35;;;14.65;;
57858;SDS011;49153;45.568;11.894;2022-07-23T08:45:55;16.17;;;14.52;;
57858;SDS011;49153;45.568;11.894;2022-07-23T08:48:24;16.23;;;14.52;;
57858;SDS011;49153;45.568;11.894;2022-07-23T08:50:52;17.58;;;15.35;;
57858;SDS011;49153;45.568;11.894;2022-07-23T08:53:20;51.55;;;15.88;;
57858;SDS011;49153;45.568;11.894;2022-07-23T08:55:47;17.17;;;14.77;;
57858;SDS011;49153;45.568;11.894;2022-07-23T08:58:26;16.10;;;14.48;;
57858;SDS011;49153;45.568;11.894;2022-07-23T09:00:52;16.85;;;15.15;;
57858;SDS011;49153;45.568;11.894;2022-07-23T09:03:21;16.20;;;14.30;;
57858;SDS011;49153;45.568;11.894;2022-07-23T09:05:51;15.82;;;14.32;;
57858;SDS011;49153;45.568;11.894;2022-07-23T09:08:19;15.85;;;14.25;;
57858;SDS011;49153;45.568;11.894;2022-07-23T09:10:50;16.27;;;14.77;;
57858;SDS011;49153;45.568;11.894;2022-07-23T09:18:35;16.02;;;14.27;;
57858;SDS011;49153;45.568;11.894;2022-07-23T09:21:12;17.15;;;15.40;;
57858;SDS011;49153;45.568;11.894;2022-07-23T09:31:50;16.08;;;14.50;;
57858;SDS011;49153;45.568;11.894;2022-07-23T09:36:47;15.90;;;14.23;;
57858;SDS011;49153;45.568;11.894;2022-07-23T09:39:14;16.50;;;14.77;;
57858;SDS011;49153;45.568;11.894;2022-07-23T09:41:43;16.10;;;14.48;;
57858;SDS011;49153;45.568;11.894;2022-07-23T09:44:18;16.58;;;14.88;;
57858;SDS011;49153;45.568;11.894;2022-07-23T09:46:46;16.35;;;14.80;;
57858;SDS011;49153;45.568;11.894;2022-07-23T09:49:20;16.52;;;14.82;;
57858;SDS011;49153;45.568;11.894;2022-07-23T09:54:21;16.65;;;15.07;;
57858;SDS011;49153;45.568;11.894;2022-07-23T09:56:47;16.27;;;14.63;;
57858;SDS011;49153;45.568;11.894;2022-07-23T09:59:14;16.98;;;15.13;;
57858;SDS011;49153;45.568;11.894;2022-07-23T10:01:44;17.10;;;15.18;;
57858;SDS011;49153;45.568;11.894;2022-07-23T10:04:11;15.38;;;14.00;;
57858;SDS011;49153;45.568;11.894;2022-07-23T10:06:38;15.07;;;13.70;;
57858;SDS011;49153;45.568;11.894;2022-07-23T10:09:04;16.00;;;14.43;;
57858;SDS011;49153;45.568;11.894;2022-07-23T10:11:30;14.70;;;13.30;;
57858;SDS011;49153;45.568;11.894;2022-07-23T10:13:56;14.70;;;13.38;;
57858;SDS011;49153;45.568;11.894;2022-07-23T10:16:28;15.60;;;14.10;;
57858;SDS011;49153;45.568;11.894;2022-07-23T10:18:53;14.48;;;12.90;;
57858;SDS011;49153;45.568;11.894;2022-07-23T10:21:24;12.20;;;11.20;;
57858;SDS011;49153;45.568;11.894;2022-07-23T10:37:17;11.57;;;10.40;;
57858;SDS011;49153;45.568;11.894;2022-07-23T10:42:42;11.18;;;10.15;;
57858;SDS011;49153;45.568;11.894;2022-07-23T10:55:47;13.13;;;11.77;;
57858;SDS011;49153;45.568;11.894;2022-07-23T10:58:25;12.00;;;10.98;;
57858;SDS011;49153;45.568;11.894;2022-07-23T11:03:58;12.05;;;10.85;;
57858;SDS011;49153;45.568;11.894;2022-07-23T11:06:24;12.10;;;10.95;;
57858;SDS011;49153;45.568;11.894;2022-07-23T11:17:30;13.68;;;11.20;;
57858;SDS011;49153;45.568;11.894;2022-07-23T11:25:00;10.40;;;9.45;;
57858;SDS011;49153;45.568;11.894;2022-07-23T11:27:42;11.65;;;10.35;;
57858;SDS011;49153;45.568;11.894;2022-07-23T11:30:36;10.70;;;9.70;;
57858;SDS011;49153;45.568;11.894;2022-07-23T11:35:43;9.80;;;8.82;;
57858;SDS011;49153;45.568;11.894;2022-07-23T11:38:14;8.98;;;8.18;;
57858;SDS011;49153;45.568;11.894;2022-07-23T11:40:49;8.95;;;8.10;;
57858;SDS011;49153;45.568;11.894;2022-07-23T11:43:19;9.20;;;8.38;;
57858;SDS011;49153;45.568;11.894;2022-07-23T11:45:46;9.32;;;8.38;;
57858;SDS011;49153;45.568;11.894;2022-07-23T11:48:23;8.52;;;7.82;;
57858;SDS011;49153;45.568;11.894;2022-07-23T11:50:51;9.13;;;8.27;;
57858;SDS011;49153;45.568;11.894;2022-07-23T11:53:28;9.65;;;8.70;;
57858;SDS011;49153;45.568;11.894;2022-07-23T11:56:03;9.02;;;8.23;;
57858;SDS011;49153;45.568;11.894;2022-07-23T11:58:33;9.70;;;8.80;;
57858;SDS011;49153;45.568;11.894;2022-07-23T12:00:59;9.18;;;8.38;;
57858;SDS011;49153;45.568;11.894;2022-07-23T12:03:25;9.93;;;9.05;;
57858;SDS011;49153;45.568;11.894;2022-07-23T12:05:55;9.48;;;8.68;;
57858;SDS011;49153;45.568;11.894;2022-07-23T12:08:21;9.20;;;8.30;;
57858;SDS011;49153;45.568;11.894;2022-07-23T12:10:47;9.52;;;8.73;;
57858;SDS011;49153;45.568;11.894;2022-07-23T12:13:13;9.70;;;8.88;;
57858;SDS011;49153;45.568;11.894;2022-07-23T12:15:47;10.32;;;9.30;;
57858;SDS011;49153;45.568;11.894;2022-07-23T12:18:14;10.30;;;9.30;;
57858;SDS011;49153;45.568;11.894;2022-07-23T12:20:46;9.30;;;8.48;;
57858;SDS011;49153;45.568;11.894;2022-07-23T12:23:14;9.27;;;8.48;;
57858;SDS011;49153;45.568;11.894;2022-07-23T12:25:42;9.80;;;8.70;;
57858;SDS011;49153;45.568;11.894;2022-07-23T12:28:10;10.40;;;8.40;;
57858;SDS011;49153;45.568;11.894;2022-07-23T12:33:04;8.73;;;7.93;;
57858;SDS011;49153;45.568;11.894;2022-07-23T12:35:31;9.40;;;8.60;;
57858;SDS011;49153;45.568;11.894;2022-07-23T12:38:10;9.88;;;8.88;;
57858;SDS011;49153;45.568;11.894;2022-07-23T12:40:47;9.02;;;8.20;;
57858;SDS011;49153;45.568;11.894;2022-07-23T12:43:26;9.35;;;8.45;;
57858;SDS011;49153;45.568;11.894;2022-07-23T12:45:56;9.20;;;8.30;;
57858;SDS011;49153;45.568;11.894;2022-07-23T12:48:28;9.75;;;8.90;;
57858;SDS011;49153;45.568;11.894;2022-07-23T12:50:59;9.32;;;8.52;;
57858;SDS011;49153;45.568;11.894;2022-07-23T12:56:12;9.30;;;8.50;;
57858;SDS011;49153;45.568;11.894;2022-07-23T12:58:47;9.43;;;8.63;;
57858;SDS011;49153;45.568;11.894;2022-07-23T13:03:56;11.40;;;9.70;;
57858;SDS011;49153;45.568;11.894;2022-07-23T13:06:22;10.63;;;9.73;;
57858;SDS011;49153;45.568;11.894;2022-07-23T13:08:48;10.05;;;9.15;;
57858;SDS011;49153;45.568;11.894;2022-07-23T13:11:13;10.00;;;9.20;;
57858;SDS011;49153;45.568;11.894;2022-07-23T13:13:39;9.38;;;8.50;;
57858;SDS011;49153;45.568;11.894;2022-07-23T13:16:04;9.77;;;8.55;;
57858;SDS011;49153;45.568;11.894;2022-07-23T13:18:30;8.93;;;8.07;;
57858;SDS011;49153;45.568;11.894;2022-07-23T13:20:56;9.05;;;8.15;;
57858;SDS011;49153;45.568;11.894;2022-07-23T13:23:22;10.15;;;8.75;;
57858;SDS011;49153;45.568;11.894;2022-07-23T13:25:48;9.50;;;8.55;;
57858;SDS011;49153;45.568;11.894;2022-07-23T13:28:14;12.70;;;11.38;;
57858;SDS011;49153;45.568;11.894;2022-07-23T13:30:41;11.27;;;10.27;;
57858;SDS011;49153;45.568;11.894;2022-07-23T13:33:08;11.20;;;10.10;;
57858;SDS011;49153;45.568;11.894;2022-07-23T13:35:34;11.75;;;10.55;;
57858;SDS011;49153;45.568;11.894;2022-07-23T13:38:01;11.98;;;10.95;;
57858;SDS011;49153;45.568;11.894;2022-07-23T13:40:27;11.52;;;10.63;;
57858;SDS011;49153;45.568;11.894;2022-07-23T13:42:53;10.65;;;9.75;;
57858;SDS011;49153;45.568;11.894;2022-07-23T13:45:19;11.57;;;10.63;;
57858;SDS011;49153;45.568;11.894;2022-07-23T13:47:45;12.30;;;10.98;;
57858;SDS011;49153;45.568;11.894;2022-07-23T13:50:10;11.82;;;10.80;;
57858;SDS011;49153;45.568;11.894;2022-07-23T13:52:36;12.77;;;11.48;;
57858;SDS011;49153;45.568;11.894;2022-07-23T13:55:03;11.48;;;10.35;;
57858;SDS011;49153;45.568;11.894;2022-07-23T13:57:30;13.30;;;12.00;;
57858;SDS011;49153;45.568;11.894;2022-07-23T13:59:56;12.90;;;11.60;;
57858;SDS011;49153;45.568;11.894;2022-07-23T14:02:22;11.77;;;10.70;;
57858;SDS011;49153;45.568;11.894;2022-07-23T14:04:48;11.80;;;10.80;;
57858;SDS011;49153;45.568;11.894;2022-07-23T14:07:14;13.07;;;11.43;;
57858;SDS011;49153;45.568;11.894;2022-07-23T14:09:40;11.00;;;10.00;;
57858;SDS011;49153;45.568;11.894;2022-07-23T14:12:06;11.60;;;10.60;;
57858;SDS011;49153;45.568;11.894;2022-07-23T14:14:31;11.93;;;10.70;;
57858;SDS011;49153;45.568;11.894;2022-07-23T14:16:57;11.77;;;10.57;;
57858;SDS011;49153;45.568;11.894;2022-07-23T14:19:23;11.25;;;10.35;;
57858;SDS011;49153;45.568;11.894;2022-07-23T14:21:48;12.73;;;11.43;;
57858;SDS011;49153;45.568;11.894;2022-07-23T14:24:14;12.05;;;10.95;;
57858;SDS011;49153;45.568;11.894;2022-07-23T14:26:40;13.18;;;11.82;;
57858;SDS011;49153;45.568;11.894;2022-07-23T14:29:06;11.57;;;10.52;;
57858;SDS011;49153;45.568;11.894;2022-07-23T14:31:32;11.90;;;10.80;;
57858;SDS011;49153;45.568;11.894;2022-07-23T14:33:57;11.20;;;10.05;;
57858;SDS011;49153;45.568;11.894;2022-07-23T14:36:24;11.35;;;10.18;;
57858;SDS011;49153;45.568;11.894;2022-07-23T14:38:50;12.60;;;11.30;;
57858;SDS011;49153;45.568;11.894;2022-07-23T14:41:16;11.82;;;10.82;;
57858;SDS011;49153;45.568;11.894;2022-07-23T14:43:41;10.68;;;9.68;;
57858;SDS011;49153;45.568;11.894;2022-07-23T14:46:07;11.40;;;10.30;;
57858;SDS011;49153;45.568;11.894;2022-07-23T14:48:33;10.63;;;9.57;;
57858;SDS011;49153;45.568;11.894;2022-07-23T14:50:58;10.77;;;9.77;;
57858;SDS011;49153;45.568;11.894;2022-07-23T14:53:23;11.65;;;9.55;;
57858;SDS011;49153;45.568;11.894;2022-07-23T14:55:49;10.15;;;9.15;;
57858;SDS011;49153;45.568;11.894;2022-07-23T14:58:14;10.25;;;9.23;;
57858;SDS011;49153;45.568;11.894;2022-07-23T15:00:40;10.00;;;9.10;;
57858;SDS011;49153;45.568;11.894;2022-07-23T15:03:05;9.63;;;8.82;;
57858;SDS011;49153;45.568;11.894;2022-07-23T15:05:31;9.77;;;8.90;;
57858;SDS011;49153;45.568;11.894;2022-07-23T15:07:56;9.70;;;8.70;;
57858;SDS011;49153;45.568;11.894;2022-07-23T15:10:22;9.50;;;8.50;;
57858;SDS011;49153;45.568;11.894;2022-07-23T15:12:47;9.15;;;8.02;;
57858;SDS011;49153;45.568;11.894;2022-07-23T15:15:13;8.43;;;7.72;;
57858;SDS011;49153;45.568;11.894;2022-07-23T15:17:39;9.00;;;8.13;;
57858;SDS011;49153;45.568;11.894;2022-07-23T15:20:04;9.23;;;8.35;;
57858;SDS011;49153;45.568;11.894;2022-07-23T15:22:30;9.05;;;8.25;;
57858;SDS011;49153;45.568;11.894;2022-07-23T15:24:56;9.48;;;8.60;;